Time;durP1;ratioP1;P1;durP2;ratioP2;P2;SDS_P1;SDS_P2;PMS_P1;PMS_P2;Temp;Humidity;BMP_temperature;BMP_pressure;BME280_temperature;BME280_humidity;BME280_pressure;Samples;Min_cycle;Max_cycle;Signal;HPM_P1;HPM_P2
2021/05/23 00:01:14;;;;;;;5.00;2.37;;;;;;;10.48;65.40;98633.54;125980;1107;103124;-73
2021/05/23 00:03:43;;;;;;;7.50;2.73;;;;;;;10.47;65.52;98641.63;125409;1099;103145;-74
2021/05/23 00:06:11;;;;;;;6.33;2.60;;;;;;;10.45;65.45;98640.89;125428;1107;103103;-73
2021/05/23 00:08:40;;;;;;;5.10;2.17;;;;;;;10.42;65.31;98648.14;125490;1107;103125;-76
2021/05/23 00:11:10;;;;;;;6.43;2.67;;;;;;;10.39;65.40;98650.21;125405;1099;103134;-74
2021/05/23 00:13:45;;;;;;;5.40;2.10;;;;;;;10.35;65.29;98646.93;125653;1104;102999;-74
2021/05/23 00:16:26;;;;;;;4.83;2.40;;;;;;;10.34;65.19;98639.05;125513;1104;103128;-75
2021/05/23 00:18:55;;;;;;;5.67;2.40;;;;;;;10.30;65.44;98635.81;127663;1104;101121;-74
2021/05/23 00:21:26;;;;;;;3.73;1.67;;;;;;;10.31;65.29;98632.19;127652;1104;101951;-74
2021/05/23 00:23:55;;;;;;;3.97;1.80;;;;;;;10.32;65.26;98636.53;127615;1104;101124;-74
2021/05/23 00:26:23;;;;;;;9.60;2.27;;;;;;;10.32;65.35;98638.33;126424;1104;101787;-75
2021/05/23 00:28:53;;;;;;;6.03;1.93;;;;;;;10.31;65.17;98636.64;125750;1104;102997;-74
2021/05/23 00:31:30;;;;;;;4.63;2.00;;;;;;;10.31;65.20;98644.61;125652;1104;102995;-75
2021/05/23 00:33:59;;;;;;;7.60;2.13;;;;;;;10.32;65.07;98646.30;125629;1104;103127;-75
2021/05/23 00:36:27;;;;;;;4.57;2.33;;;;;;;10.30;65.26;98649.09;125526;1104;103120;-75
2021/05/23 00:38:56;;;;;;;7.80;2.03;;;;;;;10.31;65.12;98647.27;125522;1100;103211;-74
2021/05/23 00:41:24;;;;;;;5.97;1.90;;;;;;;10.31;65.11;98644.61;125477;1099;103181;-75
2021/05/23 00:43:52;;;;;;;5.73;2.20;;;;;;;10.28;65.03;98651.03;125434;1105;103126;-75
2021/05/23 00:46:21;;;;;;;4.77;1.90;;;;;;;10.26;65.25;98656.45;125544;1104;103001;-75
2021/05/23 00:48:49;;;;;;;4.73;1.93;;;;;;;10.24;65.13;98654.89;125491;1100;103120;-76
2021/05/23 00:51:17;;;;;;;7.90;2.43;;;;;;;10.21;65.03;98655.95;125411;1099;103266;-75
2021/05/23 00:53:48;;;;;;;5.53;2.40;;;;;;;10.17;64.94;98670.48;125485;1100;103125;-75
2021/05/23 00:56:18;;;;;;;6.37;2.33;;;;;;;10.11;65.16;98670.95;125502;1104;103161;-77
2021/05/23 00:58:48;;;;;;;6.07;2.43;;;;;;;10.04;64.88;98686.50;125564;1104;103218;-77
2021/05/23 01:01:58;;;;;;;7.47;2.80;;;;;;;9.96;64.81;98687.09;125546;1099;103032;-76
2021/05/23 01:04:27;;;;;;;5.97;2.40;;;;;;;9.90;64.84;98687.56;125481;1104;103072;-76
2021/05/23 01:06:55;;;;;;;8.63;2.73;;;;;;;9.87;64.96;98692.27;125534;1100;102996;-76
2021/05/23 01:09:24;;;;;;;5.67;2.17;;;;;;;9.82;64.77;98685.50;125424;1100;103049;-76
2021/05/23 01:12:22;;;;;;;3.60;1.97;;;;;;;9.77;64.87;98684.99;125572;1100;103026;-76
2021/05/23 01:14:56;;;;;;;6.07;2.10;;;;;;;9.74;64.93;98687.88;125585;1104;103025;-76
2021/05/23 01:17:38;;;;;;;6.70;2.60;;;;;;;9.71;64.99;98684.63;125546;1105;103068;-75
2021/05/23 01:20:13;;;;;;;5.13;2.23;;;;;;;9.68;64.80;98689.20;125523;1104;103541;-75
2021/05/23 01:22:46;;;;;;;5.93;2.30;;;;;;;9.65;65.07;98673.50;125559;1104;103019;-73
2021/05/23 01:25:20;;;;;;;7.23;2.50;;;;;;;9.63;64.97;98680.73;125559;1104;103119;-75
2021/05/23 01:27:53;;;;;;;5.33;2.57;;;;;;;9.58;64.70;98672.26;125543;1104;103170;-73
2021/05/23 01:30:28;;;;;;;6.53;2.83;;;;;;;9.57;64.83;98669.73;125459;1100;102993;-73
2021/05/23 01:33:06;;;;;;;11.83;3.70;;;;;;;9.55;64.99;98661.86;125399;1100;103129;-73
2021/05/23 01:35:39;;;;;;;7.67;2.60;;;;;;;9.54;65.01;98668.13;125528;1100;103071;-74
2021/05/23 01:38:16;;;;;;;7.43;2.40;;;;;;;9.51;64.91;98673.67;125510;1104;103130;-78
2021/05/23 01:40:46;;;;;;;7.23;2.77;;;;;;;9.50;64.94;98678.16;125538;1104;103000;-74
2021/05/23 01:43:16;;;;;;;8.70;2.90;;;;;;;9.48;65.07;98681.86;125459;1107;103150;-76
2021/05/23 01:45:44;;;;;;;8.73;2.67;;;;;;;9.47;65.13;98677.52;125477;1107;103149;-74
2021/05/23 01:48:13;;;;;;;8.57;2.93;;;;;;;9.45;64.80;98677.64;125508;1107;103093;-75
2021/05/23 01:50:42;;;;;;;7.70;3.10;;;;;;;9.46;65.10;98681.13;125487;1107;103131;-73
2021/05/23 01:53:12;;;;;;;11.93;4.90;;;;;;;9.46;64.98;98681.98;125448;1107;103118;-73
2021/05/23 01:55:41;;;;;;;5.93;2.90;;;;;;;9.45;64.87;98682.09;125422;1107;103920;-72
2021/05/23 01:58:12;;;;;;;5.07;2.43;;;;;;;9.45;64.94;98684.74;125394;1107;102997;-72
2021/05/23 02:00:50;;;;;;;9.50;3.17;;;;;;;9.44;64.98;98685.70;125427;1107;103040;-73
2021/05/23 02:03:22;;;;;;;6.47;2.77;;;;;;;9.45;65.22;98685.61;125406;1100;103112;-73
2021/05/23 02:05:58;;;;;;;7.57;3.30;;;;;;;9.45;64.87;98684.74;125440;1107;103058;-74
2021/05/23 02:08:30;;;;;;;4.97;2.70;;;;;;;9.43;64.90;98689.31;125418;1107;103551;-73
2021/05/23 02:11:07;;;;;;;7.67;3.03;;;;;;;9.38;65.17;98692.33;125441;1107;103103;-72
2021/05/23 02:13:41;;;;;;;8.67;3.40;;;;;;;9.34;64.93;98693.51;125427;1107;103087;-75
2021/05/23 02:16:09;;;;;;;8.40;3.20;;;;;;;9.31;65.29;98693.73;125453;1100;103032;-73
2021/05/23 02:18:38;;;;;;;7.10;3.00;;;;;;;9.30;65.30;98694.69;125387;1107;103126;-74
2021/05/23 02:21:07;;;;;;;8.17;3.40;;;;;;;9.28;65.26;98692.16;125450;1107;103017;-74
2021/05/23 02:23:35;;;;;;;7.17;3.20;;;;;;;9.25;65.21;98689.73;125419;1107;103010;-73
2021/05/23 02:26:05;;;;;;;6.10;2.77;;;;;;;9.23;65.33;98687.17;125481;1100;103085;-73
2021/05/23 02:28:35;;;;;;;10.77;3.23;;;;;;;9.24;65.28;98698.66;125423;1107;103229;-72
2021/05/23 02:31:03;;;;;;;9.50;2.87;;;;;;;9.24;65.16;98696.83;125396;1107;103493;-74
2021/05/23 02:33:32;;;;;;;8.90;2.90;;;;;;;9.23;65.20;98703.09;125422;1107;103131;-73
2021/05/23 02:36:01;;;;;;;6.77;3.27;;;;;;;9.24;64.96;98706.61;125376;1107;103003;-73
2021/05/23 02:38:29;;;;;;;9.10;3.30;;;;;;;9.24;65.13;98711.92;125413;1107;103130;-75
2021/05/23 02:40:59;;;;;;;10.00;3.37;;;;;;;9.24;65.32;98714.58;125425;1107;103079;-74
2021/05/23 02:43:28;;;;;;;10.13;3.23;;;;;;;9.23;65.33;98710.23;125377;1107;103004;-75
2021/05/23 02:45:57;;;;;;;9.97;3.63;;;;;;;9.22;65.24;98704.05;125414;1107;103007;-73
2021/05/23 02:48:25;;;;;;;5.33;2.97;;;;;;;9.23;65.44;98708.41;125413;1107;103122;-74
2021/05/23 02:50:55;;;;;;;6.47;2.70;;;;;;;9.23;65.13;98708.41;125443;1100;103204;-74
2021/05/23 02:53:23;;;;;;;9.30;3.37;;;;;;;9.26;65.37;98710.00;125425;1107;103128;-75
2021/05/23 02:55:53;;;;;;;7.53;3.10;;;;;;;9.28;65.15;98712.53;125398;1107;103022;-73
2021/05/23 02:58:22;;;;;;;10.10;3.50;;;;;;;9.28;65.37;98713.39;125427;1107;103032;-74
2021/05/23 03:00:51;;;;;;;6.67;3.00;;;;;;;9.28;65.63;98713.39;125394;1107;103107;-73
2021/05/23 03:03:20;;;;;;;6.83;3.20;;;;;;;9.26;65.05;98712.66;125435;1100;103191;-71
2021/05/23 03:05:48;;;;;;;7.53;2.97;;;;;;;9.20;65.31;98713.10;125405;1107;103030;-73
2021/05/23 03:08:18;;;;;;;7.70;3.07;;;;;;;9.19;65.43;98711.41;125409;1107;103102;-75
2021/05/23 03:10:54;;;;;;;9.30;3.40;;;;;;;9.20;65.41;98713.94;125413;1100;103102;-74
2021/05/23 03:13:23;;;;;;;7.30;3.30;;;;;;;9.22;65.26;98719.98;125497;1104;103147;-73
2021/05/23 03:15:52;;;;;;;7.50;3.30;;;;;;;9.24;65.25;98722.54;125546;1104;103072;-74
2021/05/23 03:18:20;;;;;;;8.97;3.37;;;;;;;9.24;64.95;98725.19;125522;1100;103134;-74
2021/05/23 03:20:50;;;;;;;8.13;3.30;;;;;;;9.25;65.22;98724.23;125498;1104;103226;-72
2021/05/23 03:23:18;;;;;;;8.07;3.20;;;;;;;9.29;65.36;98724.84;125545;1100;103475;-74
2021/05/23 03:25:46;;;;;;;6.50;2.83;;;;;;;9.30;65.68;98723.89;125513;1104;103096;-74
2021/05/23 03:28:15;;;;;;;8.63;3.07;;;;;;;9.33;65.56;98724.53;125548;1104;103101;-75
2021/05/23 03:30:44;;;;;;;6.87;2.80;;;;;;;9.35;65.24;98722.61;125411;1105;103235;-75
2021/05/23 03:33:13;;;;;;;7.27;3.07;;;;;;;9.36;65.64;98716.34;125530;1100;103096;-75
2021/05/23 03:35:41;;;;;;;7.37;3.10;;;;;;;9.39;65.42;98712.60;125581;1104;103218;-76
2021/05/23 03:38:11;;;;;;;6.57;2.90;;;;;;;9.39;65.59;98716.09;125573;1100;103028;-73
2021/05/23 03:40:40;;;;;;;7.30;3.20;;;;;;;9.42;65.81;98711.52;125593;1104;103082;-71
2021/05/23 03:43:11;;;;;;;5.63;3.13;;;;;;;9.43;65.88;98722.03;125566;1099;103473;-73
2021/05/23 03:45:39;;;;;;;6.83;2.73;;;;;;;9.45;65.52;98719.25;125464;1104;103029;-74
2021/05/23 03:48:08;;;;;;;8.53;3.20;;;;;;;9.45;65.50;98720.12;125550;1104;103109;-74
2021/05/23 03:50:36;;;;;;;8.23;3.00;;;;;;;9.45;65.31;98720.12;125540;1104;103161;-73
2021/05/23 03:53:06;;;;;;;6.97;3.20;;;;;;;9.45;65.36;98717.46;125397;1104;103158;-73
2021/05/23 03:55:34;;;;;;;8.37;3.53;;;;;;;9.47;65.71;98718.20;125560;1104;103142;-72
2021/05/23 03:58:07;;;;;;;7.13;3.10;;;;;;;9.50;65.34;98725.08;125487;1104;103122;-73
2021/05/23 04:00:36;;;;;;;6.73;3.20;;;;;;;9.52;65.56;98726.67;125542;1104;103061;-73
2021/05/23 04:03:05;;;;;;;10.73;3.90;;;;;;;9.48;65.59;98725.20;125483;1104;103090;-73
2021/05/23 04:05:33;;;;;;;9.07;3.20;;;;;;;9.47;65.52;98741.23;125562;1104;103209;-73
2021/05/23 04:08:04;;;;;;;6.93;2.90;;;;;;;9.48;65.36;98732.30;125546;1104;102992;-74
2021/05/23 04:10:40;;;;;;;8.65;2.95;;;;;;;9.51;65.39;98745.36;125393;1104;103126;-72
2021/05/23 04:13:10;;;;;;;8.30;2.97;;;;;;;9.54;65.46;98745.13;125480;1100;103029;-75
2021/05/23 04:15:40;;;;;;;7.00;3.03;;;;;;;9.57;65.57;98758.19;125381;1107;103469;-73
2021/05/23 04:18:08;;;;;;;7.47;3.07;;;;;;;9.60;65.61;98757.96;125472;1100;103016;-74
2021/05/23 04:20:36;;;;;;;5.63;2.70;;;;;;;9.66;65.53;98765.48;125523;1107;103139;-74
2021/05/23 04:23:05;;;;;;;7.80;2.90;;;;;;;9.70;66.00;98763.43;125334;1100;103083;-74
2021/05/23 04:25:33;;;;;;;4.77;2.60;;;;;;;9.75;65.88;98761.28;125430;1107;103099;-74
2021/05/23 04:28:03;;;;;;;4.20;2.50;;;;;;;9.81;65.65;98762.63;125380;1099;103050;-73
2021/05/23 04:30:33;;;;;;;5.60;2.70;;;;;;;9.88;65.92;98757.72;125438;1100;103026;-73
2021/05/23 04:33:03;;;;;;;5.60;2.40;;;;;;;9.96;65.88;98768.63;125392;1107;103138;-75
2021/05/23 04:35:32;;;;;;;3.73;2.13;;;;;;;10.03;65.94;98769.84;125417;1100;103026;-74
2021/05/23 04:38:02;;;;;;;6.40;2.40;;;;;;;10.10;65.79;98760.45;125401;1107;103023;-75
2021/05/23 04:40:31;;;;;;;6.03;2.47;;;;;;;10.18;65.96;98764.34;125400;1104;103149;-73
2021/05/23 04:43:01;;;;;;;4.33;2.40;;;;;;;10.25;66.13;98746.95;125512;1104;103092;-73
2021/05/23 04:45:37;;;;;;;7.07;2.37;;;;;;;10.34;65.94;98754.23;125430;1105;103057;-72
2021/05/23 04:48:07;;;;;;;5.07;2.30;;;;;;;10.42;65.97;98749.18;125502;1104;103022;-73
2021/05/23 04:50:36;;;;;;;6.60;2.27;;;;;;;10.52;66.07;98759.11;125583;1100;102995;-74
2021/05/23 04:53:06;;;;;;;6.10;2.30;;;;;;;10.59;66.17;98751.52;125415;1107;103125;-74
2021/05/23 04:55:35;;;;;;;5.97;2.47;;;;;;;10.67;66.01;98754.41;125414;1100;103025;-75
2021/05/23 04:58:03;;;;;;;6.35;2.55;;;;;;;10.74;65.94;98747.64;125417;1099;103137;-75
2021/05/23 05:00:32;;;;;;;7.73;2.60;;;;;;;10.81;66.06;98753.31;125382;1100;103164;-75
2021/05/23 05:03:01;;;;;;;4.20;2.20;;;;;;;10.89;66.12;98753.56;125389;1100;103060;-75
2021/05/23 05:05:32;;;;;;;4.43;2.03;;;;;;;10.96;66.01;98754.77;125394;1107;102996;-75
2021/05/23 05:08:00;;;;;;;4.23;2.20;;;;;;;11.04;66.13;98753.33;125401;1107;103102;-72
2021/05/23 05:10:29;;;;;;;4.33;2.20;;;;;;;11.11;66.04;98750.04;125425;1107;103068;-74
2021/05/23 05:12:57;;;;;;;9.60;2.83;;;;;;;11.20;65.93;98751.14;125347;1108;103042;-75
2021/05/23 05:15:26;;;;;;;4.37;2.20;;;;;;;11.28;66.02;98756.67;125379;1107;103001;-74
2021/05/23 05:17:55;;;;;;;7.60;2.57;;;;;;;11.37;66.06;98749.77;125319;1107;103078;-75
2021/05/23 05:20:24;;;;;;;4.93;2.20;;;;;;;11.46;66.06;98750.83;125404;1107;103121;-72
2021/05/23 05:22:53;;;;;;;4.73;2.70;;;;;;;11.56;66.07;98753.58;125513;1104;103026;-74
2021/05/23 05:25:21;;;;;;;3.20;1.90;;;;;;;11.64;66.01;98744.95;125503;1104;103022;-76
2021/05/23 05:27:50;;;;;;;4.07;1.80;;;;;;;11.73;65.93;98745.05;125349;1107;103244;-73
2021/05/23 05:30:20;;;;;;;5.40;2.00;;;;;;;11.85;66.10;98748.52;125375;1100;103075;-72
2021/05/23 05:32:48;;;;;;;10.00;2.70;;;;;;;11.97;66.09;98748.47;125338;1105;103072;-74
2021/05/23 05:35:18;;;;;;;4.60;1.97;;;;;;;12.06;65.91;98748.57;125312;1107;102990;-73
2021/05/23 05:37:46;;;;;;;5.43;1.90;;;;;;;12.17;65.92;98755.66;125374;1099;103059;-74
2021/05/23 05:40:15;;;;;;;7.67;2.50;;;;;;;12.28;65.98;98752.07;125549;1104;102973;-74
2021/05/23 05:42:44;;;;;;;7.53;1.93;;;;;;;12.40;65.88;98760.02;125339;1107;103080;-74
2021/05/23 05:45:13;;;;;;;5.93;2.50;;;;;;;12.49;65.78;98754.73;125565;1104;103230;-75
2021/05/23 05:47:41;;;;;;;3.33;1.70;;;;;;;12.62;65.88;98745.67;125352;1104;103073;-75
2021/05/23 05:50:10;;;;;;;3.77;1.93;;;;;;;12.70;65.74;98751.20;125545;1104;103061;-74
2021/05/23 05:52:39;;;;;;;4.43;1.73;;;;;;;12.78;65.77;98743.38;125290;1100;103135;-72
2021/05/23 05:55:09;;;;;;;4.93;2.20;;;;;;;12.88;65.73;98743.41;125163;1107;103107;-74
2021/05/23 05:57:37;;;;;;;2.93;2.00;;;;;;;12.95;65.69;98747.23;125459;1104;103178;-74
2021/05/23 06:00:07;;;;;;;6.27;1.80;;;;;;;13.03;65.77;98743.88;125287;1104;103099;-73
2021/05/23 06:02:35;;;;;;;6.10;1.97;;;;;;;13.14;65.81;98745.59;125436;1104;102989;-75
2021/05/23 06:05:04;;;;;;;4.07;1.80;;;;;;;13.27;65.57;98748.02;125390;1104;103024;-75
2021/05/23 06:07:33;;;;;;;4.37;1.60;;;;;;;13.38;65.61;98750.58;125298;1107;103000;-76
2021/05/23 06:10:02;;;;;;;3.47;1.63;;;;;;;13.49;65.57;98749.63;125589;1104;103025;-75
2021/05/23 06:12:30;;;;;;;4.20;1.60;;;;;;;13.64;65.48;98746.56;125585;1104;103029;-74
2021/05/23 06:14:59;;;;;;;2.80;1.60;;;;;;;13.77;65.61;98735.59;125505;1104;103094;-74
2021/05/23 06:17:28;;;;;;;2.70;1.53;;;;;;;13.96;65.37;98748.12;125454;1104;103027;-73
2021/05/23 06:19:58;;;;;;;6.70;2.13;;;;;;;14.24;64.98;98737.55;125470;1104;103025;-72
2021/05/23 06:22:26;;;;;;;4.00;1.50;;;;;;;14.54;64.61;98739.16;125249;1105;103058;-73
2021/05/23 06:24:54;;;;;;;6.27;2.03;;;;;;;14.90;64.46;98735.83;125296;1107;103062;-75
2021/05/23 06:27:23;;;;;;;8.10;1.97;;;;;;;15.24;64.37;98748.63;125363;1105;103650;-72
2021/05/23 06:29:51;;;;;;;5.27;1.50;;;;;;;15.36;64.44;98737.70;125406;1100;103182;-71
2021/05/23 06:32:19;;;;;;;5.80;1.60;;;;;;;15.38;64.64;98739.23;125480;1104;102997;-71
2021/05/23 06:34:49;;;;;;;6.93;2.40;;;;;;;15.47;64.78;98746.38;125397;1107;103093;-73
2021/05/23 06:37:18;;;;;;;9.10;2.80;;;;;;;15.58;65.07;98739.11;125382;1100;103121;-75
2021/05/23 06:39:47;;;;;;;6.27;1.83;;;;;;;15.68;64.88;98737.22;125368;1100;103183;-75
2021/05/23 06:42:15;;;;;;;7.17;2.00;;;;;;;15.77;64.80;98738.95;125418;1100;103107;-71
2021/05/23 06:44:43;;;;;;;3.27;1.63;;;;;;;15.85;64.78;98735.52;125554;1104;103109;-72
2021/05/23 06:47:12;;;;;;;5.83;2.07;;;;;;;15.93;64.87;98735.61;125536;1100;103120;-75
2021/05/23 06:49:41;;;;;;;4.47;1.83;;;;;;;16.03;64.54;98742.73;125508;1104;103029;-73
2021/05/23 06:52:09;;;;;;;4.43;1.63;;;;;;;16.15;64.54;98746.87;125478;1100;103140;-76
2021/05/23 06:54:38;;;;;;;8.83;2.63;;;;;;;16.27;64.63;98739.41;125542;1100;102997;-75
2021/05/23 06:57:06;;;;;;;7.17;1.97;;;;;;;17.06;63.23;98736.70;125516;1104;104626;-73
2021/05/23 06:59:35;;;;;;;8.47;2.10;;;;;;;19.26;61.12;98729.92;125521;1104;103121;-68
2021/05/23 07:02:03;;;;;;;7.97;2.10;;;;;;;19.17;63.13;98734.52;125497;1104;102997;-80
2021/05/23 07:04:32;;;;;;;5.77;1.40;;;;;;;19.12;63.81;98745.84;125483;1105;103388;-86
2021/05/23 07:07:00;;;;;;;108.07;59.87;;;;;;;19.13;63.74;98742.14;125603;1104;103238;-86
2021/05/23 07:09:28;;;;;;;138.23;91.63;;;;;;;19.16;63.69;98744.45;125718;1099;103112;-79
2021/05/23 07:11:56;;;;;;;69.80;45.87;;;;;;;19.19;63.79;98738.71;125797;1100;103026;-78
2021/05/23 07:14:25;;;;;;;18.13;7.23;;;;;;;19.31;63.65;98743.72;125563;1105;103170;-83
2021/05/23 07:16:53;;;;;;;41.00;24.73;;;;;;;19.44;62.94;98743.14;125330;1107;103138;-77
2021/05/23 07:19:21;;;;;;;42.77;25.27;;;;;;;19.57;63.26;98747.95;125393;1104;103029;-79
2021/05/23 07:21:50;;;;;;;38.25;21.45;;;;;;;19.67;62.75;98739.66;125516;1104;103049;-77
2021/05/23 07:24:18;;;;;;;23.73;11.93;;;;;;;19.98;62.92;98750.41;125464;1104;102991;-71
2021/05/23 07:26:46;;;;;;;22.40;10.30;;;;;;;20.34;62.76;98757.05;125421;1104;103481;-77
2021/05/23 07:29:15;;;;;;;19.57;6.90;;;;;;;20.57;62.51;98754.30;125469;1105;103692;-72
2021/05/23 07:31:43;;;;;;;9.97;4.40;;;;;;;20.95;62.21;98762.36;125437;1099;103000;-87
2021/05/23 07:34:12;;;;;;;12.95;5.00;;;;;;;21.23;61.96;98760.86;125602;1105;103069;-83
2021/05/23 07:36:41;;;;;;;6.83;3.23;;;;;;;21.53;61.27;98756.24;125578;1107;103094;-76
2021/05/23 07:39:10;;;;;;;4.80;2.73;;;;;;;22.08;60.83;98760.37;125448;1104;103097;-81
2021/05/23 07:41:38;;;;;;;5.20;2.53;;;;;;;22.33;60.95;98754.53;125448;1104;103170;-78
2021/05/23 07:44:06;;;;;;;6.90;1.75;;;;;;;22.64;60.42;98758.75;125188;1105;103080;-79
2021/05/23 07:46:35;;;;;;;4.97;2.20;;;;;;;22.97;60.43;98756.26;125319;1099;103129;-79
2021/05/23 07:49:03;;;;;;;5.00;2.20;;;;;;;23.16;59.99;98762.83;125195;1107;103000;-79
2021/05/23 07:51:32;;;;;;;5.03;2.17;;;;;;;23.26;59.75;98753.52;125090;1104;103039;-75
2021/05/23 07:54:00;;;;;;;5.37;1.53;;;;;;;23.12;59.82;98752.59;125050;1105;103527;-76
2021/05/23 07:56:28;;;;;;;4.80;1.70;;;;;;;22.97;60.11;98753.55;125223;1104;102997;-76
2021/05/23 07:58:57;;;;;;;6.37;2.00;;;;;;;22.95;59.85;98755.62;125028;1100;103349;-79
2021/05/23 08:01:25;;;;;;;3.33;1.60;;;;;;;22.71;59.25;98760.49;125107;1104;103061;-74
2021/05/23 08:03:53;;;;;;;2.60;1.40;;;;;;;22.78;59.20;98760.52;125184;1104;103380;-75
2021/05/23 08:06:22;;;;;;;3.25;1.40;;;;;;;22.64;59.29;98762.31;125420;1100;101745;-78
2021/05/23 08:08:50;;;;;;;4.03;1.47;;;;;;;22.52;58.79;98767.45;125383;1107;103235;-80
2021/05/23 08:11:19;;;;;;;3.20;1.73;;;;;;;22.36;58.46;98773.95;125558;1104;103022;-79
2021/05/23 08:13:48;;;;;;;3.40;1.63;;;;;;;22.51;58.18;98773.05;125300;1107;103121;-80
2021/05/23 08:16:16;;;;;;;5.97;2.00;;;;;;;22.51;58.45;98778.47;125698;1107;103155;-81
2021/05/23 08:18:45;;;;;;;5.97;2.27;;;;;;;22.44;57.93;98778.42;125004;1105;103020;-80
2021/05/23 08:21:13;;;;;;;4.57;1.63;;;;;;;22.55;57.81;98788.73;125576;1104;103219;-77
2021/05/23 08:23:43;;;;;;;3.23;1.60;;;;;;;22.78;57.66;98786.81;125344;1100;103231;-83
2021/05/23 08:26:12;;;;;;;2.97;1.77;;;;;;;22.86;57.26;98790.20;125786;1105;103024;-78
2021/05/23 08:28:40;;;;;;;4.17;1.80;;;;;;;23.03;56.74;98787.16;125593;1104;103046;-81
2021/05/23 08:31:09;;;;;;;6.37;1.73;;;;;;;23.49;56.87;98783.05;125668;1105;103037;-76
2021/05/23 08:33:38;;;;;;;4.10;1.43;;;;;;;24.05;56.32;98781.97;125368;1100;103478;-77
2021/05/23 08:36:06;;;;;;;1.73;1.27;;;;;;;24.33;56.28;98793.71;125507;1104;102995;-76
2021/05/23 08:38:36;;;;;;;2.97;1.67;;;;;;;24.57;56.10;98794.97;125434;1107;101975;-76
2021/05/23 08:41:07;;;;;;;4.33;1.47;;;;;;;24.62;55.27;98795.19;125490;1104;102995;-75
2021/05/23 08:43:36;;;;;;;3.57;1.00;;;;;;;24.56;55.05;98787.01;125463;1104;103068;-77
2021/05/23 08:46:05;;;;;;;4.30;1.33;;;;;;;24.60;55.28;98789.12;125499;1104;102999;-77
2021/05/23 08:48:34;;;;;;;6.87;1.70;;;;;;;24.71;55.23;98792.23;125280;1107;103075;-81
2021/05/23 08:51:03;;;;;;;2.63;1.20;;;;;;;24.86;54.59;98789.34;125330;1106;102992;-78
2021/05/23 08:53:31;;;;;;;4.55;1.55;;;;;;;24.82;54.29;98792.48;125383;1105;103014;-79
2021/05/23 08:55:59;;;;;;;5.10;1.55;;;;;;;24.58;53.80;98790.36;125490;1104;103299;-78
2021/05/23 08:58:29;;;;;;;4.17;1.57;;;;;;;24.63;53.32;98794.14;125266;1107;103165;-79
2021/05/23 09:00:57;;;;;;;3.40;1.63;;;;;;;24.94;53.13;98794.53;125375;1107;103081;-79
2021/05/23 09:03:26;;;;;;;4.10;1.45;;;;;;;25.18;53.00;98790.28;125501;1105;103020;-81
2021/05/23 09:05:57;;;;;;;4.57;1.50;;;;;;;25.59;52.87;98791.02;125673;1100;101778;-81
2021/05/23 09:08:29;;;;;;;6.77;1.80;;;;;;;25.93;52.44;98783.50;125590;1107;102985;-79
2021/05/23 09:11:04;;;;;;;3.00;1.48;;;;;;;26.06;52.14;98779.84;125456;1104;103032;-80
2021/05/23 09:13:36;;;;;;;3.33;1.40;;;;;;;26.21;51.87;98785.01;125352;1104;103126;-76
2021/05/23 09:16:06;;;;;;;2.63;1.53;;;;;;;26.53;51.92;98784.14;125520;1100;103000;-78
2021/05/23 09:18:49;;;;;;;6.33;2.00;;;;;;;26.65;51.10;98774.18;125354;1107;103122;-76
2021/05/23 09:21:21;;;;;;;3.97;1.60;;;;;;;26.65;51.33;98786.97;125355;1107;103131;-75
2021/05/23 09:23:57;;;;;;;5.30;1.70;;;;;;;26.73;50.67;98779.33;125367;1107;103086;-78
2021/05/23 09:26:27;;;;;;;3.40;1.47;;;;;;;26.89;48.04;98772.51;125460;1104;103003;-76
2021/05/23 09:29:07;;;;;;;6.40;1.90;;;;;;;26.38;48.40;98771.66;125494;1104;103024;-75
2021/05/23 09:31:37;;;;;;;3.90;1.33;;;;;;;26.55;49.28;98785.58;125371;1104;103104;-74
2021/05/23 09:34:06;;;;;;;4.07;1.70;;;;;;;26.72;49.00;98769.47;125521;1104;103022;-77
2021/05/23 09:36:46;;;;;;;5.07;1.63;;;;;;;26.93;47.95;98764.69;125397;1104;103029;-79
2021/05/23 09:39:14;;;;;;;1.43;1.20;;;;;;;26.97;47.78;98760.45;125367;1104;103020;-78
2021/05/23 09:41:44;;;;;;;3.10;1.30;;;;;;;27.08;46.26;98769.77;125203;1099;103048;-77
2021/05/23 09:44:22;;;;;;;1.40;1.10;;;;;;;26.86;46.51;98767.50;125183;1100;102731;-79
2021/05/23 09:46:56;;;;;;;3.77;1.70;;;;;;;26.95;46.96;98770.76;125342;1104;103129;-79
2021/05/23 09:49:24;;;;;;;2.70;1.53;;;;;;;27.08;47.01;98768.95;125199;1100;103004;-77
2021/05/23 09:52:03;;;;;;;6.13;1.17;;;;;;;27.13;46.81;98767.20;125399;1100;103125;-77
2021/05/23 09:54:53;;;;;;;3.97;1.17;;;;;;;26.86;46.21;98763.92;125250;1105;103075;-77
2021/05/23 09:57:24;;;;;;;5.97;1.57;;;;;;;26.35;45.82;98769.38;125428;1100;103098;-79
2021/05/23 10:00:08;;;;;;;4.37;1.43;;;;;;;25.85;45.68;98775.58;125364;1104;102994;-79
2021/05/23 10:02:51;;;;;;;3.33;1.50;;;;;;;25.15;45.69;98774.38;125271;1100;103006;-79
2021/05/23 10:05:22;;;;;;;2.67;1.20;;;;;;;24.73;45.39;98771.98;125438;1104;102997;-80
2021/05/23 10:07:51;;;;;;;2.93;1.23;;;;;;;24.46;44.51;98766.52;125365;1107;103152;-78
2021/05/23 10:10:19;;;;;;;3.27;1.10;;;;;;;24.20;44.97;98767.38;125349;1107;103212;-80
2021/05/23 10:12:48;;;;;;;3.63;1.30;;;;;;;23.90;45.11;98763.11;125375;1107;103189;-76
2021/05/23 10:15:17;;;;;;;6.05;1.55;;;;;;;23.72;44.95;98763.70;125469;1104;103097;-79
2021/05/23 10:17:57;;;;;;;3.55;1.10;;;;;;;23.52;43.91;98773.64;125349;1100;103024;-77
2021/05/23 10:20:28;;;;;;;3.70;1.30;;;;;;;23.37;44.46;98776.52;125372;1107;103029;-75
2021/05/23 10:22:59;;;;;;;2.30;1.03;;;;;;;23.11;44.08;98768.02;125639;1100;102995;-72
2021/05/23 10:25:29;;;;;;;4.53;0.97;;;;;;;22.89;44.18;98761.84;125537;1104;103129;-73
2021/05/23 10:28:02;;;;;;;5.70;1.20;;;;;;;22.81;44.09;98762.02;125598;1105;103183;-75
2021/05/23 10:30:31;;;;;;;5.40;1.33;;;;;;;22.74;42.65;98772.80;125602;1104;103010;-74
2021/05/23 10:33:10;;;;;;;1.53;1.00;;;;;;;22.54;42.47;98761.81;125362;1105;102997;-76
2021/05/23 10:35:46;;;;;;;1.73;1.10;;;;;;;22.37;43.42;98769.36;125552;1099;103020;-73
2021/05/23 10:38:20;;;;;;;6.17;1.40;;;;;;;22.18;41.82;98770.87;125563;1100;103137;-73
2021/05/23 10:41:01;;;;;;;3.75;0.80;;;;;;;21.89;42.37;98770.80;125662;1104;103022;-74
2021/05/23 10:43:36;;;;;;;2.33;0.80;;;;;;;21.75;42.60;98771.70;125376;1107;103037;-72
2021/05/23 10:46:14;;;;;;;3.00;1.20;;;;;;;21.60;42.43;98766.31;125319;1107;103132;-76
2021/05/23 10:48:57;;;;;;;3.03;1.07;;;;;;;21.45;42.11;98772.58;125353;1107;105627;-73
2021/05/23 10:51:28;;;;;;;3.13;1.08;;;;;;;21.24;42.03;98768.77;125591;1104;103120;-72
2021/05/23 10:53:56;;;;;;;3.17;1.10;;;;;;;21.12;42.09;98775.70;125410;1100;103083;-73
2021/05/23 10:56:29;;;;;;;2.50;0.85;;;;;;;21.08;42.28;98777.92;125363;1105;103155;-72
2021/05/23 10:59:03;;;;;;;2.87;0.80;;;;;;;21.03;41.88;98779.52;125205;1107;103032;-74
2021/05/23 11:01:39;;;;;;;2.47;1.17;;;;;;;20.90;41.79;98780.18;125348;1100;103061;-70
2021/05/23 11:04:16;;;;;;;1.80;0.83;;;;;;;20.80;41.35;98789.39;125316;1104;103470;-72
2021/05/23 11:06:47;;;;;;;3.25;0.95;;;;;;;20.58;41.58;98779.47;125166;1104;103146;-71
2021/05/23 11:09:17;;;;;;;5.23;0.93;;;;;;;20.46;41.77;98784.45;125412;1104;103025;-75
2021/05/23 11:11:47;;;;;;;4.33;0.93;;;;;;;20.42;41.60;98780.43;125399;1100;102969;-74
2021/05/23 11:14:23;;;;;;;2.47;0.97;;;;;;;20.37;41.21;98789.09;125319;1104;102658;-79
2021/05/23 11:16:57;;;;;;;3.30;1.47;;;;;;;20.26;41.46;98786.81;125285;1107;103071;-72
2021/05/23 11:19:30;;;;;;;4.37;0.83;;;;;;;20.15;41.11;98786.25;125230;1104;103059;-73
2021/05/23 11:22:00;;;;;;;6.00;1.30;;;;;;;20.06;40.39;98785.45;125123;1107;103080;-72
2021/05/23 11:24:30;;;;;;;4.37;1.13;;;;;;;19.90;40.69;98796.38;125170;1105;103110;-73
2021/05/23 11:27:14;;;;;;;2.77;1.33;;;;;;;19.77;41.21;98791.51;125303;1107;103152;-74
2021/05/23 11:29:47;;;;;;;1.20;1.00;;;;;;;19.71;41.11;98793.06;125373;1104;103003;-74
2021/05/23 11:32:16;;;;;;;;;;;;;;;19.67;41.24;98785.52;125509;1105;103673;-73
2021/05/23 11:34:46;;;;;;;2.40;0.87;;;;;;;19.58;40.54;98790.95;125287;1100;103148;-73